createdAt,value
2022-07-25T00:00:00.728Z,24.75
2022-07-25T00:02:30.529Z,24.80
2022-07-25T00:04:59.349Z,24.78
2022-07-25T00:07:28.404Z,24.71
2022-07-25T00:09:57.302Z,24.70
2022-07-25T00:12:26.025Z,24.75
2022-07-25T00:14:54.740Z,24.80
2022-07-25T00:17:23.986Z,24.70
2022-07-25T00:19:53.170Z,24.65
2022-07-25T00:22:21.793Z,24.73
2022-07-25T00:24:50.612Z,24.67
2022-07-25T00:27:19.329Z,24.65
2022-07-25T00:29:48.070Z,24.71
2022-07-25T00:32:20.010Z,24.70
2022-07-25T00:34:52.973Z,24.72
2022-07-25T00:37:21.698Z,24.66
2022-07-25T00:39:50.324Z,24.64
2022-07-25T00:42:18.985Z,24.60
2022-07-25T00:44:47.595Z,24.39
2022-07-25T00:47:16.280Z,24.28
2022-07-25T00:49:45.001Z,24.32
2022-07-25T00:52:14.047Z,24.32
2022-07-25T00:54:42.842Z,24.29
2022-07-25T00:57:13.385Z,24.28
2022-07-25T00:59:42.390Z,24.17
2022-07-25T01:02:11.313Z,24.08
2022-07-25T01:04:40.228Z,24.07
2022-07-25T01:07:08.837Z,23.92
2022-07-25T01:09:38.654Z,23.86
2022-07-25T01:12:09.091Z,23.77
2022-07-25T01:14:42.138Z,23.83
2022-07-25T01:17:12.494Z,23.87
2022-07-25T01:19:41.189Z,23.81
2022-07-25T01:22:10.001Z,23.87
2022-07-25T01:24:40.156Z,23.79
2022-07-25T01:27:08.877Z,23.74
2022-07-25T01:29:39.484Z,23.72
2022-07-25T01:32:10.507Z,23.85
2022-07-25T01:34:39.231Z,23.89
2022-07-25T01:37:09.596Z,24.00
2022-07-25T01:39:38.313Z,24.15
2022-07-25T01:42:07.704Z,24.14
2022-07-25T01:44:36.318Z,24.22
2022-07-25T01:47:05.197Z,24.40
2022-07-25T01:49:34.744Z,24.26
2022-07-25T01:52:03.461Z,24.22
2022-07-25T01:54:32.468Z,24.24
2022-07-25T01:57:01.087Z,24.17
2022-07-25T01:59:37.272Z,24.17
2022-07-25T02:02:06.786Z,24.20
2022-07-25T02:04:36.767Z,24.26
2022-07-25T02:07:05.850Z,24.17
2022-07-25T02:09:35.175Z,24.16
2022-07-25T02:12:03.929Z,24.05
2022-07-25T02:14:32.992Z,23.99
2022-07-25T02:17:02.773Z,23.96
2022-07-25T02:19:31.401Z,23.81
2022-07-25T02:22:01.569Z,23.76
2022-07-25T02:24:30.283Z,23.69
2022-07-25T02:26:59.088Z,23.57
2022-07-25T02:29:28.120Z,23.56
2022-07-25T02:31:56.833Z,23.40
2022-07-25T02:34:25.557Z,23.35
2022-07-25T02:36:54.366Z,23.24
2022-07-25T02:39:23.054Z,23.05
2022-07-25T02:41:51.799Z,22.95
2022-07-25T02:44:20.431Z,22.96
2022-07-25T02:46:49.309Z,23.00
2022-07-25T02:49:18.132Z,23.01
2022-07-25T02:51:46.805Z,22.95
2022-07-25T02:54:16.086Z,22.92
2022-07-25T02:59:55.559Z,22.94
2022-07-25T03:02:24.416Z,22.87
2022-07-25T03:04:53.585Z,22.85
2022-07-25T03:07:22.296Z,22.85
2022-07-25T03:09:50.915Z,22.86
2022-07-25T03:12:22.009Z,22.78
2022-07-25T03:14:55.115Z,22.82
2022-07-25T03:17:23.702Z,22.82
2022-07-25T03:19:52.580Z,22.80
2022-07-25T03:22:23.186Z,22.77
2022-07-25T03:24:56.909Z,22.84
2022-07-25T03:27:25.599Z,22.83
2022-07-25T03:29:54.613Z,22.88
2022-07-25T03:32:23.364Z,22.84
2022-07-25T03:34:51.993Z,22.84
2022-07-25T03:37:22.243Z,22.86
2022-07-25T03:39:50.915Z,22.83
2022-07-25T03:42:24.974Z,22.82
2022-07-25T03:44:53.510Z,22.84
2022-07-25T03:47:22.063Z,22.77
2022-07-25T03:49:52.211Z,22.73
2022-07-25T03:52:20.916Z,22.77
2022-07-25T03:54:49.523Z,22.80
2022-07-25T03:57:18.124Z,22.82
2022-07-25T03:59:46.747Z,23.20
2022-07-25T04:02:15.436Z,23.96
2022-07-25T04:04:44.025Z,25.09
2022-07-25T04:07:12.610Z,25.05
2022-07-25T04:09:42.396Z,25.61
2022-07-25T04:12:11.093Z,25.26
2022-07-25T04:14:40.167Z,25.11
2022-07-25T04:17:08.889Z,25.16
2022-07-25T04:19:38.470Z,26.01
2022-07-25T04:22:07.090Z,26.03
2022-07-25T04:24:35.846Z,25.33
2022-07-25T04:27:04.800Z,26.32
2022-07-25T04:29:33.470Z,26.35
2022-07-25T04:32:02.190Z,26.99
2022-07-25T04:34:31.097Z,26.41
2022-07-25T04:36:59.829Z,27.58
2022-07-25T04:39:30.375Z,25.98
2022-07-25T04:42:28.666Z,25.70
2022-07-25T04:44:36.429Z,25.30
2022-07-25T04:47:05.622Z,25.52
2022-07-25T04:49:34.357Z,24.89
2022-07-25T04:52:02.993Z,24.25
2022-07-25T04:54:31.626Z,24.02
2022-07-25T04:57:00.371Z,23.94
2022-07-25T04:59:30.566Z,24.04
2022-07-25T05:02:00.423Z,24.15
2022-07-25T05:04:29.126Z,23.98
2022-07-25T05:06:59.311Z,24.11
2022-07-25T05:09:28.900Z,23.95
2022-07-25T05:11:57.451Z,23.96
2022-07-25T05:14:26.132Z,24.20
2022-07-25T05:16:55.204Z,24.38
2022-07-25T05:19:26.996Z,24.13
2022-07-25T05:21:55.566Z,24.15
2022-07-25T05:24:24.895Z,24.15
2022-07-25T05:26:53.512Z,24.02
2022-07-25T05:29:22.236Z,24.09
2022-07-25T05:31:52.581Z,24.30
2022-07-25T05:34:21.339Z,24.29
2022-07-25T05:36:50.051Z,24.28
2022-07-25T05:39:18.689Z,24.62
2022-07-25T05:41:47.462Z,24.62
2022-07-25T05:44:16.133Z,24.80
2022-07-25T05:46:44.907Z,25.03
2022-07-25T05:49:13.611Z,24.80
2022-07-25T05:51:42.354Z,24.86
2022-07-25T05:54:11.083Z,24.87
2022-07-25T05:56:42.465Z,24.74
2022-07-25T05:59:11.159Z,24.97
2022-07-25T06:01:40.013Z,25.08
2022-07-25T06:04:09.097Z,25.23
2022-07-25T06:06:38.044Z,25.26
2022-07-25T06:09:08.065Z,25.46
2022-07-25T06:11:36.803Z,25.49
2022-07-25T06:14:07.474Z,25.26
2022-07-25T06:16:37.608Z,25.43
2022-07-25T06:19:06.300Z,25.21
2022-07-25T06:21:35.199Z,25.29
2022-07-25T06:24:04.781Z,25.42
2022-07-25T06:26:33.732Z,25.47
2022-07-25T06:29:02.692Z,25.33
2022-07-25T06:31:32.508Z,25.35
2022-07-25T06:34:02.401Z,25.56
2022-07-25T06:36:32.330Z,25.59
2022-07-25T06:39:02.160Z,25.67
2022-07-25T06:41:30.729Z,25.70
2022-07-25T06:43:59.410Z,25.93
2022-07-25T06:46:29.759Z,26.02
2022-07-25T06:48:59.344Z,26.25
2022-07-25T06:51:28.114Z,26.01
2022-07-25T06:53:56.866Z,26.17
2022-07-25T06:56:25.914Z,26.10
2022-07-25T06:58:55.950Z,26.15
2022-07-25T07:01:24.862Z,26.23
2022-07-25T07:03:53.961Z,26.49
2022-07-25T07:06:23.411Z,26.56
2022-07-25T07:08:53.850Z,26.68
2022-07-25T07:11:22.803Z,26.59
2022-07-25T07:13:51.956Z,26.90
2022-07-25T07:16:20.720Z,26.70
2022-07-25T07:18:49.729Z,26.80
2022-07-25T07:21:21.561Z,27.03
2022-07-25T07:23:49.267Z,27.15
2022-07-25T07:26:21.266Z,27.42
2022-07-25T07:28:50.183Z,27.43
2022-07-25T07:31:19.641Z,27.58
2022-07-25T07:33:48.613Z,27.73
2022-07-25T07:36:17.594Z,27.86
2022-07-25T07:38:46.788Z,27.75
2022-07-25T07:41:16.327Z,27.56
2022-07-25T07:43:44.958Z,27.48
2022-07-25T07:46:14.235Z,27.44
2022-07-25T07:48:43.571Z,27.47
2022-07-25T07:51:12.177Z,27.78
2022-07-25T07:53:58.619Z,27.79
2022-07-25T07:56:27.508Z,28.11
2022-07-25T07:58:56.187Z,27.97
2022-07-25T08:01:26.045Z,28.05
2022-07-25T08:03:55.084Z,27.95
2022-07-25T08:06:23.832Z,28.18
2022-07-25T08:08:52.585Z,28.30
2022-07-25T08:11:21.364Z,28.41
2022-07-25T08:13:50.138Z,28.37
2022-07-25T08:16:19.551Z,28.30
2022-07-25T08:18:48.352Z,28.48
2022-07-25T08:21:17.025Z,28.42
2022-07-25T08:23:47.249Z,28.69
2022-07-25T08:26:15.981Z,28.52
2022-07-25T08:28:46.540Z,28.95
2022-07-25T08:31:16.047Z,28.51
2022-07-25T08:33:44.697Z,28.14
2022-07-25T08:36:13.381Z,28.44
2022-07-25T08:38:42.152Z,28.84
2022-07-25T08:41:10.736Z,28.54
2022-07-25T08:43:40.139Z,28.87
2022-07-25T08:46:10.298Z,29.06
2022-07-25T08:48:40.583Z,29.54
2022-07-25T08:51:10.672Z,29.48
2022-07-25T08:53:39.555Z,29.04
2022-07-25T08:56:14.570Z,28.78
2022-07-25T08:58:40.893Z,29.00
2022-07-25T09:01:09.988Z,29.38
2022-07-25T09:03:40.734Z,29.96
2022-07-25T09:06:21.071Z,29.37
2022-07-25T09:08:58.754Z,29.66
2022-07-25T09:11:33.118Z,29.90
2022-07-25T09:14:08.801Z,29.56
2022-07-25T09:16:43.280Z,29.83
2022-07-25T09:19:16.092Z,30.10
2022-07-25T09:21:47.762Z,29.77
2022-07-25T09:24:21.438Z,29.40
2022-07-25T09:26:52.451Z,30.50
2022-07-25T09:29:27.868Z,29.56
2022-07-25T09:31:57.594Z,29.42
2022-07-25T09:34:40.767Z,29.62
2022-07-25T09:37:12.628Z,29.77
2022-07-25T09:39:50.425Z,28.92
2022-07-25T09:42:27.820Z,29.55
2022-07-25T09:45:04.835Z,29.74
2022-07-25T09:47:35.886Z,30.24
2022-07-25T09:50:05.189Z,30.05
2022-07-25T09:52:33.994Z,29.48
2022-07-25T09:55:06.019Z,29.29
2022-07-25T09:57:34.860Z,29.19
2022-07-25T10:00:03.826Z,29.33
2022-07-25T10:02:45.871Z,29.75
2022-07-25T10:05:36.763Z,30.13
2022-07-25T10:08:08.771Z,30.68
2022-07-25T10:10:42.860Z,30.93
2022-07-25T10:13:15.423Z,30.83
2022-07-25T10:15:54.637Z,30.76
2022-07-25T10:18:25.811Z,31.25
2022-07-25T10:21:17.795Z,30.81
2022-07-25T10:23:33.885Z,30.38
2022-07-25T10:26:12.640Z,30.08
2022-07-25T10:28:45.447Z,30.28
2022-07-25T10:31:24.349Z,30.52
2022-07-25T10:33:55.295Z,30.83
2022-07-25T10:36:25.327Z,31.03
2022-07-25T10:39:00.460Z,31.27
2022-07-25T10:41:31.828Z,31.61
2022-07-25T10:44:03.516Z,31.85
2022-07-25T10:46:35.505Z,31.82
2022-07-25T10:49:08.156Z,31.87
2022-07-25T10:51:42.187Z,31.59
2022-07-25T10:54:17.089Z,31.02
2022-07-25T10:56:58.128Z,31.08
2022-07-25T10:59:31.167Z,30.96
2022-07-25T11:02:00.419Z,31.20
2022-07-25T11:04:29.133Z,32.00
2022-07-25T11:06:58.043Z,32.50
2022-07-25T11:09:29.347Z,32.75
2022-07-25T11:12:01.307Z,33.15
2022-07-25T11:14:40.532Z,32.71
2022-07-25T11:17:24.436Z,32.58
2022-07-25T11:19:58.737Z,31.83
2022-07-25T11:22:29.194Z,31.47
2022-07-25T11:24:59.125Z,31.06
2022-07-25T11:27:30.997Z,30.82
2022-07-25T11:30:17.309Z,30.65
2022-07-25T11:32:52.088Z,30.85
2022-07-25T11:35:26.742Z,30.99
2022-07-25T11:37:56.828Z,31.18
2022-07-25T11:40:26.602Z,31.52
2022-07-25T11:42:59.714Z,31.33
2022-07-25T11:45:34.013Z,31.43
2022-07-25T11:48:14.662Z,31.20
2022-07-25T11:50:45.739Z,31.23
2022-07-25T11:53:17.963Z,31.75
2022-07-25T11:55:50.399Z,31.84
2022-07-25T11:58:19.529Z,31.89
2022-07-25T12:00:53.027Z,31.50
2022-07-25T12:03:26.956Z,31.36
2022-07-25T12:05:56.857Z,31.63
2022-07-25T12:08:27.060Z,31.61
2022-07-25T12:10:56.336Z,31.68
2022-07-25T12:13:26.826Z,31.62
2022-07-25T12:15:57.187Z,31.83
2022-07-25T12:18:30.091Z,31.55
2022-07-25T12:20:59.526Z,31.24
2022-07-25T12:23:31.144Z,31.16
2022-07-25T12:25:59.925Z,31.17
2022-07-25T12:28:28.575Z,30.99
2022-07-25T12:31:02.131Z,31.08
2022-07-25T12:33:32.819Z,30.72
2022-07-25T12:36:08.039Z,30.83
2022-07-25T12:38:35.258Z,31.02
2022-07-25T12:41:04.715Z,31.19
2022-07-25T12:43:34.604Z,31.66
2022-07-25T12:46:06.152Z,31.40
2022-07-25T12:48:39.140Z,31.53
2022-07-25T12:51:08.355Z,31.77
2022-07-25T12:53:42.292Z,31.83
2022-07-25T12:56:09.444Z,32.11
2022-07-25T12:58:51.859Z,32.12
2022-07-25T13:01:21.101Z,32.07
2022-07-25T13:03:55.329Z,32.09
2022-07-25T13:06:24.053Z,32.15
2022-07-25T13:09:01.484Z,32.27
2022-07-25T13:11:34.715Z,32.03
2022-07-25T13:14:03.756Z,31.76
2022-07-25T13:16:34.578Z,31.05
2022-07-25T13:19:06.221Z,31.14
2022-07-25T13:21:37.218Z,30.97
2022-07-25T13:24:12.769Z,30.91
2022-07-25T13:29:48.793Z,30.63
2022-07-25T13:32:18.271Z,30.67
2022-07-25T13:34:51.670Z,31.05
2022-07-25T13:37:38.783Z,31.23
2022-07-25T13:40:10.843Z,31.17
2022-07-25T13:42:48.022Z,31.27
2022-07-25T13:45:24.257Z,31.39
2022-07-25T13:48:30.815Z,31.28
2022-07-25T13:50:45.702Z,31.69
2022-07-25T13:53:18.584Z,31.71
2022-07-25T13:55:49.006Z,31.62
2022-07-25T13:58:26.838Z,31.58
2022-07-25T14:00:58.385Z,31.54
2022-07-25T14:03:35.932Z,31.80
2022-07-25T14:06:11.686Z,31.54
2022-07-25T14:08:48.578Z,31.79
2022-07-25T14:11:39.591Z,31.57
2022-07-25T14:17:10.944Z,32.39
2022-07-25T14:19:46.081Z,32.64
2022-07-25T14:22:21.542Z,32.83
2022-07-25T14:24:57.195Z,33.33
2022-07-25T14:27:28.905Z,33.73
2022-07-25T14:30:04.789Z,35.20
2022-07-25T14:32:33.865Z,34.17
2022-07-25T14:35:03.036Z,35.93
2022-07-25T14:37:31.665Z,36.40
2022-07-25T14:40:00.722Z,36.81
2022-07-25T14:42:32.937Z,36.97
2022-07-25T14:45:03.258Z,37.37
2022-07-25T14:47:37.330Z,36.89
2022-07-25T14:50:07.177Z,36.84
2022-07-25T14:52:38.962Z,37.74
2022-07-25T14:55:12.884Z,38.65
2022-07-25T14:57:44.586Z,37.95
2022-07-25T15:00:14.282Z,38.41
2022-07-25T15:02:46.076Z,38.16
2022-07-25T15:05:19.083Z,37.77
2022-07-25T15:07:55.243Z,37.47
2022-07-25T15:10:27.121Z,37.99
2022-07-25T15:13:20.438Z,37.50
2022-07-25T15:15:26.423Z,37.43
2022-07-25T15:17:55.824Z,38.09
2022-07-25T15:23:56.977Z,38.72
2022-07-25T15:26:27.919Z,38.85
2022-07-25T15:28:56.758Z,38.64
2022-07-25T15:31:27.822Z,38.58
2022-07-25T15:33:56.580Z,38.00
2022-07-25T15:36:29.727Z,37.96
2022-07-25T15:39:01.796Z,37.23
2022-07-25T15:41:35.544Z,36.42
2022-07-25T15:44:03.627Z,36.87
2022-07-25T15:46:33.085Z,37.52
2022-07-25T15:49:02.640Z,38.04
2022-07-25T15:51:31.497Z,38.14
2022-07-25T15:54:01.655Z,37.18
2022-07-25T15:56:30.365Z,37.17
2022-07-25T15:59:02.356Z,37.46
2022-07-25T16:01:31.101Z,37.80
2022-07-25T16:04:01.144Z,37.46
2022-07-25T16:06:30.007Z,36.69
2022-07-25T16:08:58.719Z,36.22
2022-07-25T16:11:27.805Z,36.42
2022-07-25T16:13:58.171Z,36.56
2022-07-25T16:16:29.936Z,36.03
2022-07-25T16:19:01.163Z,35.48
2022-07-25T16:21:30.241Z,36.32
2022-07-25T16:23:59.951Z,36.28
2022-07-25T16:26:40.458Z,35.76
2022-07-25T16:29:16.758Z,35.47
2022-07-25T16:31:48.933Z,36.06
2022-07-25T16:34:19.144Z,35.89
2022-07-25T16:36:48.112Z,34.92
2022-07-25T16:39:43.476Z,34.17
2022-07-25T16:45:43.488Z,32.27
2022-07-25T16:48:31.153Z,31.71
2022-07-25T16:51:03.166Z,31.53
2022-07-25T16:53:32.884Z,31.24
2022-07-25T16:56:10.988Z,30.94
2022-07-25T16:58:51.728Z,30.77
2022-07-25T17:01:22.074Z,30.66
2022-07-25T17:03:52.589Z,30.41
2022-07-25T17:06:39.558Z,30.20
2022-07-25T17:09:13.325Z,30.13
2022-07-25T17:11:47.651Z,29.97
2022-07-25T17:14:16.580Z,29.84
2022-07-25T17:16:45.360Z,29.74
2022-07-25T17:19:14.146Z,29.63
2022-07-25T17:21:57.040Z,29.59
2022-07-25T17:24:21.740Z,29.53
2022-07-25T17:26:51.008Z,29.48
2022-07-25T17:29:19.704Z,29.32
2022-07-25T17:31:48.775Z,29.27
2022-07-25T17:34:17.843Z,29.14
2022-07-25T17:36:48.485Z,29.01
2022-07-25T17:39:17.972Z,28.95
2022-07-25T17:41:49.862Z,28.86
2022-07-25T17:44:30.273Z,28.74
2022-07-25T17:47:07.551Z,28.63
2022-07-25T17:49:50.272Z,28.60
2022-07-25T17:52:22.899Z,28.51
2022-07-25T17:55:10.348Z,28.48
2022-07-25T17:57:28.333Z,28.30
2022-07-25T18:00:01.055Z,28.19
2022-07-25T18:02:32.775Z,28.10
2022-07-25T18:05:06.075Z,28.01
2022-07-25T18:07:43.052Z,28.10
2022-07-25T18:10:24.033Z,27.91
2022-07-25T18:13:02.689Z,27.90
2022-07-25T18:15:35.616Z,27.82
2022-07-25T18:18:10.483Z,27.70
2022-07-25T18:20:41.479Z,27.68
2022-07-25T18:23:12.270Z,27.60
2022-07-25T18:25:47.251Z,27.49
2022-07-25T18:28:20.232Z,27.39
2022-07-25T18:30:57.390Z,27.40
2022-07-25T18:33:27.739Z,27.33
2022-07-25T18:35:56.521Z,27.29
2022-07-25T18:38:25.265Z,27.21
2022-07-25T18:41:12.304Z,27.16
2022-07-25T18:43:28.929Z,27.09
2022-07-25T18:46:03.564Z,27.10
2022-07-25T18:48:36.395Z,27.11
2022-07-25T18:51:06.677Z,27.11
2022-07-25T18:53:38.383Z,27.10
2022-07-25T18:56:07.598Z,26.96
2022-07-25T18:58:37.083Z,26.97
2022-07-25T19:01:11.029Z,26.93
2022-07-25T19:03:49.875Z,26.88
2022-07-25T19:06:22.041Z,26.85
2022-07-25T19:08:57.762Z,26.75
2022-07-25T19:11:29.664Z,26.65
2022-07-25T19:13:59.840Z,26.61
2022-07-25T19:16:28.959Z,26.49
2022-07-25T19:19:04.678Z,26.39
2022-07-25T19:21:33.530Z,26.39
2022-07-25T19:24:02.271Z,26.22
2022-07-25T19:26:35.448Z,26.13
2022-07-25T19:29:05.646Z,26.12
2022-07-25T19:31:35.514Z,26.08
2022-07-25T19:34:05.150Z,25.99
2022-07-25T19:36:34.555Z,25.90
2022-07-25T19:39:06.589Z,25.79
2022-07-25T19:41:44.682Z,25.84
2022-07-25T19:44:12.280Z,25.80
2022-07-25T19:46:41.215Z,25.80
2022-07-25T19:49:10.148Z,25.80
2022-07-25T19:51:38.947Z,25.67
2022-07-25T19:54:09.289Z,25.63
2022-07-25T19:56:48.591Z,25.63
2022-07-25T19:59:17.524Z,25.56
2022-07-25T20:01:50.034Z,25.48
2022-07-25T20:04:18.750Z,25.43
2022-07-25T20:06:47.460Z,25.38
2022-07-25T20:09:19.069Z,25.33
2022-07-25T20:11:48.738Z,25.29
2022-07-25T20:14:18.852Z,25.25
2022-07-25T20:16:47.644Z,25.33
2022-07-25T20:19:16.435Z,25.25
2022-07-25T20:21:45.380Z,25.18
2022-07-25T20:24:18.008Z,25.12
2022-07-25T20:26:44.739Z,25.19
2022-07-25T20:29:14.095Z,25.07
2022-07-25T20:31:44.332Z,25.03
2022-07-25T20:34:19.386Z,25.01
2022-07-25T20:36:51.310Z,24.98
2022-07-25T20:39:20.197Z,24.89
2022-07-25T20:41:54.478Z,24.88
2022-07-25T20:44:26.454Z,24.88
2022-07-25T20:46:55.747Z,24.84
2022-07-25T20:49:25.883Z,24.76
2022-07-25T20:51:54.924Z,24.68
2022-07-25T20:54:24.820Z,24.79
2022-07-25T20:56:56.124Z,24.73
2022-07-25T20:59:26.549Z,24.61
2022-07-25T21:02:32.018Z,24.56
2022-07-25T21:05:00.809Z,24.59
2022-07-25T21:07:30.983Z,24.44
2022-07-25T21:10:01.009Z,24.46
2022-07-25T21:12:32.935Z,24.37
2022-07-25T21:15:02.378Z,24.26
2022-07-25T21:17:31.281Z,24.19
2022-07-25T21:20:04.173Z,24.15
2022-07-25T21:22:32.814Z,24.29
2022-07-25T21:25:01.753Z,24.29
2022-07-25T21:27:30.474Z,24.19
2022-07-25T21:29:59.348Z,24.25
2022-07-25T21:32:37.698Z,24.16
2022-07-25T21:35:07.426Z,24.12
2022-07-25T21:37:36.180Z,24.10
2022-07-25T21:40:05.464Z,24.10
2022-07-25T21:42:34.468Z,24.11
2022-07-25T21:45:03.571Z,24.06
2022-07-25T21:47:32.340Z,24.10
2022-07-25T21:50:24.535Z,23.91
2022-07-25T21:52:49.487Z,24.03
2022-07-25T21:55:19.609Z,24.03
2022-07-25T21:57:54.783Z,23.98
2022-07-25T22:00:25.769Z,23.99
2022-07-25T22:02:54.489Z,23.94
2022-07-25T22:05:23.594Z,23.88
2022-07-25T22:07:56.176Z,23.81
2022-07-25T22:10:24.847Z,23.73
2022-07-25T22:12:56.218Z,23.66
2022-07-25T22:15:31.255Z,23.64
2022-07-25T22:18:17.339Z,23.64
2022-07-25T22:20:46.132Z,23.61
2022-07-25T22:23:17.709Z,23.61
2022-07-25T22:25:46.477Z,23.49
2022-07-25T22:28:16.134Z,23.50
2022-07-25T22:33:38.140Z,23.47
2022-07-25T22:36:09.551Z,23.34
2022-07-25T22:38:38.250Z,23.32
2022-07-25T22:41:07.142Z,23.27
2022-07-25T22:43:56.937Z,23.23
2022-07-25T22:46:13.877Z,23.14
2022-07-25T22:48:44.376Z,23.05
2022-07-25T23:14:00.189Z,22.83
2022-07-25T23:36:21.706Z,22.51
2022-07-25T23:38:53.590Z,22.47
2022-07-25T23:41:22.715Z,22.47
2022-07-25T23:44:00.013Z,22.42
2022-07-25T23:46:29.604Z,22.38
2022-07-25T23:49:00.844Z,22.38
2022-07-25T23:51:30.715Z,22.43
2022-07-25T23:54:03.809Z,22.36
2022-07-25T23:56:33.008Z,22.29
2022-07-25T23:59:02.106Z,22.22
